sensor_id;sensor_type;location;lat;lon;timestamp;pressure;altitude;pressure_sealevel;temperature;humidity
43663;BME280;74813;56.104;40.358;2024-03-02T00:00:44;101223.28;;;2.68;64.35
43663;BME280;74813;56.104;40.358;2024-03-02T00:03:17;101218.59;;;2.55;65.08
43663;BME280;74813;56.104;40.358;2024-03-02T00:05:50;101223.88;;;2.42;65.87
43663;BME280;74813;56.104;40.358;2024-03-02T00:08:24;101219.47;;;2.63;64.97
43663;BME280;74813;56.104;40.358;2024-03-02T00:10:58;101213.47;;;2.67;63.77
43663;BME280;74813;56.104;40.358;2024-03-02T00:13:31;101219.66;;;2.61;64.19
43663;BME280;74813;56.104;40.358;2024-03-02T00:16:03;101217.28;;;2.73;63.62
43663;BME280;74813;56.104;40.358;2024-03-02T00:18:36;101226.41;;;2.44;64.48
43663;BME280;74813;56.104;40.358;2024-03-02T00:21:09;101227.31;;;2.29;65.21
43663;BME280;74813;56.104;40.358;2024-03-02T00:23:41;101231.47;;;2.25;65.05
43663;BME280;74813;56.104;40.358;2024-03-02T00:26:14;101233.59;;;2.30;65.41
43663;BME280;74813;56.104;40.358;2024-03-02T00:28:48;101224.81;;;1.91;66.21
43663;BME280;74813;56.104;40.358;2024-03-02T00:31:20;101227.63;;;1.98;66.04
43663;BME280;74813;56.104;40.358;2024-03-02T00:33:53;101231.69;;;2.09;65.36
43663;BME280;74813;56.104;40.358;2024-03-02T00:36:26;101227.84;;;2.18;65.12
43663;BME280;74813;56.104;40.358;2024-03-02T00:38:59;101227.53;;;2.28;64.63
43663;BME280;74813;56.104;40.358;2024-03-02T00:41:31;101233.81;;;2.50;63.91
43663;BME280;74813;56.104;40.358;2024-03-02T00:44:06;101241.72;;;2.30;64.27
43663;BME280;74813;56.104;40.358;2024-03-02T00:46:40;101234.88;;;2.12;64.89
43663;BME280;74813;56.104;40.358;2024-03-02T00:51:47;101232.19;;;2.55;63.20
43663;BME280;74813;56.104;40.358;2024-03-02T00:54:25;101235.63;;;2.43;63.05
43663;BME280;74813;56.104;40.358;2024-03-02T00:56:58;101228.47;;;2.42;63.61
43663;BME280;74813;56.104;40.358;2024-03-02T00:59:30;101229.56;;;2.69;63.10
43663;BME280;74813;56.104;40.358;2024-03-02T01:02:03;101229.91;;;2.59;62.91
43663;BME280;74813;56.104;40.358;2024-03-02T01:04:35;101230.44;;;2.48;63.97
43663;BME280;74813;56.104;40.358;2024-03-02T01:07:07;101223.22;;;2.62;63.41
43663;BME280;74813;56.104;40.358;2024-03-02T01:09:40;101229.94;;;2.01;65.35
43663;BME280;74813;56.104;40.358;2024-03-02T01:12:12;101231.34;;;2.33;64.50
43663;BME280;74813;56.104;40.358;2024-03-02T01:14:44;101223.50;;;2.24;64.71
43663;BME280;74813;56.104;40.358;2024-03-02T01:17:17;101227.38;;;2.14;65.60
43663;BME280;74813;56.104;40.358;2024-03-02T01:19:49;101227.38;;;2.36;65.13
43663;BME280;74813;56.104;40.358;2024-03-02T01:22:23;101233.97;;;2.27;65.08
43663;BME280;74813;56.104;40.358;2024-03-02T01:24:55;101234.72;;;1.99;65.86
43663;BME280;74813;56.104;40.358;2024-03-02T01:27:27;101235.78;;;1.98;66.10
43663;BME280;74813;56.104;40.358;2024-03-02T01:30:00;101233.53;;;2.45;65.09
43663;BME280;74813;56.104;40.358;2024-03-02T01:32:32;101232.88;;;2.64;64.04
43663;BME280;74813;56.104;40.358;2024-03-02T01:35:05;101240.50;;;2.75;63.52
43663;BME280;74813;56.104;40.358;2024-03-02T01:37:38;101232.09;;;2.70;63.31
43663;BME280;74813;56.104;40.358;2024-03-02T01:40:10;101240.78;;;2.38;64.95
43663;BME280;74813;56.104;40.358;2024-03-02T01:42:43;101243.88;;;2.13;65.86
43663;BME280;74813;56.104;40.358;2024-03-02T01:45:15;101244.34;;;2.38;65.59
43663;BME280;74813;56.104;40.358;2024-03-02T01:47:48;101243.03;;;2.34;65.27
43663;BME280;74813;56.104;40.358;2024-03-02T01:50:28;101248.22;;;2.29;65.75
43663;BME280;74813;56.104;40.358;2024-03-02T01:53:00;101254.41;;;2.01;66.78
43663;BME280;74813;56.104;40.358;2024-03-02T01:55:33;101251.38;;;1.60;68.09
43663;BME280;74813;56.104;40.358;2024-03-02T01:58:05;101258.78;;;1.51;68.75
43663;BME280;74813;56.104;40.358;2024-03-02T02:00:38;101255.78;;;1.46;68.72
43663;BME280;74813;56.104;40.358;2024-03-02T02:03:10;101250.97;;;1.78;67.91
43663;BME280;74813;56.104;40.358;2024-03-02T02:05:43;101260.25;;;1.83;67.53
43663;BME280;74813;56.104;40.358;2024-03-02T02:08:15;101261.13;;;2.05;67.06
43663;BME280;74813;56.104;40.358;2024-03-02T02:10:47;101263.34;;;2.17;66.46
43663;BME280;74813;56.104;40.358;2024-03-02T02:13:20;101261.19;;;2.12;66.53
43663;BME280;74813;56.104;40.358;2024-03-02T02:15:52;101263.44;;;2.23;66.23
43663;BME280;74813;56.104;40.358;2024-03-02T02:18:25;101263.66;;;2.07;66.50
43663;BME280;74813;56.104;40.358;2024-03-02T02:20:57;101268.34;;;2.13;66.44
43663;BME280;74813;56.104;40.358;2024-03-02T02:23:29;101266.97;;;1.87;67.23
43663;BME280;74813;56.104;40.358;2024-03-02T02:26:02;101262.63;;;2.08;67.04
43663;BME280;74813;56.104;40.358;2024-03-02T02:28:34;101261.75;;;2.07;67.16
43663;BME280;74813;56.104;40.358;2024-03-02T02:31:06;101279.78;;;2.08;67.05
43663;BME280;74813;56.104;40.358;2024-03-02T02:33:40;101270.88;;;2.00;67.05
43663;BME280;74813;56.104;40.358;2024-03-02T02:36:12;101276.66;;;2.11;66.90
43663;BME280;74813;56.104;40.358;2024-03-02T02:38:46;101278.81;;;2.16;66.54
43663;BME280;74813;56.104;40.358;2024-03-02T02:41:19;101255.78;;;1.97;66.98
43663;BME280;74813;56.104;40.358;2024-03-02T02:43:52;101276.00;;;2.09;67.17
43663;BME280;74813;56.104;40.358;2024-03-02T02:46:24;101284.16;;;2.09;66.17
43663;BME280;74813;56.104;40.358;2024-03-02T02:48:57;101279.59;;;1.95;66.89
43663;BME280;74813;56.104;40.358;2024-03-02T02:51:29;101278.03;;;1.86;66.73
43663;BME280;74813;56.104;40.358;2024-03-02T02:54:01;101280.09;;;1.84;67.01
43663;BME280;74813;56.104;40.358;2024-03-02T02:56:34;101273.91;;;1.75;67.02
43663;BME280;74813;56.104;40.358;2024-03-02T02:59:06;101283.94;;;1.60;67.58
43663;BME280;74813;56.104;40.358;2024-03-02T03:01:38;101282.59;;;1.85;66.75
43663;BME280;74813;56.104;40.358;2024-03-02T03:04:11;101278.38;;;1.83;66.78
43663;BME280;74813;56.104;40.358;2024-03-02T03:06:43;101280.75;;;1.86;66.40
43663;BME280;74813;56.104;40.358;2024-03-02T03:09:15;101292.56;;;1.78;66.43
43663;BME280;74813;56.104;40.358;2024-03-02T03:11:48;101291.06;;;1.76;66.49
43663;BME280;74813;56.104;40.358;2024-03-02T03:14:20;101286.81;;;1.88;65.74
43663;BME280;74813;56.104;40.358;2024-03-02T03:16:52;101281.19;;;1.89;65.90
43663;BME280;74813;56.104;40.358;2024-03-02T03:19:25;101279.69;;;1.87;65.93
43663;BME280;74813;56.104;40.358;2024-03-02T03:21:57;101283.06;;;1.89;65.81
43663;BME280;74813;56.104;40.358;2024-03-02T03:24:29;101280.56;;;1.72;65.87
43663;BME280;74813;56.104;40.358;2024-03-02T03:27:02;101275.41;;;1.78;66.31
43663;BME280;74813;56.104;40.358;2024-03-02T03:29:36;101274.94;;;1.74;66.00
43663;BME280;74813;56.104;40.358;2024-03-02T03:32:08;101275.78;;;1.75;66.12
43663;BME280;74813;56.104;40.358;2024-03-02T03:34:41;101261.94;;;1.69;66.23
43663;BME280;74813;56.104;40.358;2024-03-02T03:37:13;101266.25;;;1.49;67.03
43663;BME280;74813;56.104;40.358;2024-03-02T03:39:45;101266.91;;;1.66;66.37
43663;BME280;74813;56.104;40.358;2024-03-02T03:42:18;101265.41;;;1.78;66.30
43663;BME280;74813;56.104;40.358;2024-03-02T03:44:50;101269.97;;;1.78;65.95
43663;BME280;74813;56.104;40.358;2024-03-02T03:47:23;101272.88;;;1.91;65.63
43663;BME280;74813;56.104;40.358;2024-03-02T03:49:55;101267.91;;;1.80;65.51
43663;BME280;74813;56.104;40.358;2024-03-02T03:52:27;101280.19;;;1.90;65.54
43663;BME280;74813;56.104;40.358;2024-03-02T03:55:00;101272.78;;;1.69;65.90
43663;BME280;74813;56.104;40.358;2024-03-02T03:57:33;101284.31;;;1.71;66.29
43663;BME280;74813;56.104;40.358;2024-03-02T04:00:06;101283.28;;;1.72;66.06
43663;BME280;74813;56.104;40.358;2024-03-02T04:02:38;101280.38;;;1.74;66.04
43663;BME280;74813;56.104;40.358;2024-03-02T04:05:11;101284.41;;;1.63;66.33
43663;BME280;74813;56.104;40.358;2024-03-02T04:07:43;101290.47;;;1.80;66.09
43663;BME280;74813;56.104;40.358;2024-03-02T04:10:15;101291.50;;;1.79;65.92
43663;BME280;74813;56.104;40.358;2024-03-02T04:12:49;101289.06;;;1.99;65.62
43663;BME280;74813;56.104;40.358;2024-03-02T04:15:21;101290.38;;;2.03;65.30
43663;BME280;74813;56.104;40.358;2024-03-02T04:17:54;101292.25;;;1.88;65.64
43663;BME280;74813;56.104;40.358;2024-03-02T04:20:26;101289.53;;;1.73;66.16
43663;BME280;74813;56.104;40.358;2024-03-02T04:22:58;101290.94;;;1.84;66.22
43663;BME280;74813;56.104;40.358;2024-03-02T04:25:31;101296.09;;;1.93;65.81
43663;BME280;74813;56.104;40.358;2024-03-02T04:28:03;101291.38;;;2.02;65.98
43663;BME280;74813;56.104;40.358;2024-03-02T04:30:36;101286.47;;;1.61;66.54
43663;BME280;74813;56.104;40.358;2024-03-02T04:33:08;101304.16;;;1.72;67.09
43663;BME280;74813;56.104;40.358;2024-03-02T04:35:40;101296.47;;;1.90;66.51
43663;BME280;74813;56.104;40.358;2024-03-02T04:38:13;101300.50;;;1.80;66.53
43663;BME280;74813;56.104;40.358;2024-03-02T04:40:45;101299.78;;;1.56;67.74
43663;BME280;74813;56.104;40.358;2024-03-02T04:43:18;101301.22;;;2.03;66.03
43663;BME280;74813;56.104;40.358;2024-03-02T04:45:50;101288.59;;;1.96;65.91
43663;BME280;74813;56.104;40.358;2024-03-02T04:48:22;101299.97;;;2.21;65.11
43663;BME280;74813;56.104;40.358;2024-03-02T04:50:55;101299.28;;;1.67;66.29
43663;BME280;74813;56.104;40.358;2024-03-02T04:53:27;101303.44;;;2.14;64.98
43663;BME280;74813;56.104;40.358;2024-03-02T04:55:59;101304.31;;;2.36;64.56
43663;BME280;74813;56.104;40.358;2024-03-02T04:58:32;101314.88;;;2.10;65.70
43663;BME280;74813;56.104;40.358;2024-03-02T05:01:04;101307.63;;;1.96;66.33
43663;BME280;74813;56.104;40.358;2024-03-02T05:03:40;101305.59;;;2.19;64.87
43663;BME280;74813;56.104;40.358;2024-03-02T05:06:12;101315.16;;;2.15;65.24
43663;BME280;74813;56.104;40.358;2024-03-02T05:08:44;101312.59;;;2.28;64.70
43663;BME280;74813;56.104;40.358;2024-03-02T05:11:17;101319.03;;;1.91;65.75
43663;BME280;74813;56.104;40.358;2024-03-02T05:13:49;101310.97;;;1.98;65.13
43663;BME280;74813;56.104;40.358;2024-03-02T05:16:22;101302.16;;;2.10;65.46
43663;BME280;74813;56.104;40.358;2024-03-02T05:18:54;101313.06;;;1.81;65.90
43663;BME280;74813;56.104;40.358;2024-03-02T05:21:26;101320.63;;;1.85;66.19
43663;BME280;74813;56.104;40.358;2024-03-02T05:23:59;101321.06;;;2.19;64.97
43663;BME280;74813;56.104;40.358;2024-03-02T05:26:31;101321.41;;;2.30;64.64
43663;BME280;74813;56.104;40.358;2024-03-02T05:29:04;101315.84;;;1.72;65.86
43663;BME280;74813;56.104;40.358;2024-03-02T05:31:36;101317.34;;;1.90;65.58
43663;BME280;74813;56.104;40.358;2024-03-02T05:34:08;101318.53;;;2.02;65.25
43663;BME280;74813;56.104;40.358;2024-03-02T05:36:41;101317.16;;;2.06;65.56
43663;BME280;74813;56.104;40.358;2024-03-02T05:39:13;101314.63;;;2.41;64.64
43663;BME280;74813;56.104;40.358;2024-03-02T05:41:45;101323.81;;;2.40;64.02
43663;BME280;74813;56.104;40.358;2024-03-02T05:44:18;101317.78;;;2.45;63.92
43663;BME280;74813;56.104;40.358;2024-03-02T05:46:50;101323.72;;;2.70;63.16
43663;BME280;74813;56.104;40.358;2024-03-02T05:49:22;101318.13;;;2.56;63.88
43663;BME280;74813;56.104;40.358;2024-03-02T05:51:55;101319.66;;;2.44;64.16
43663;BME280;74813;56.104;40.358;2024-03-02T05:54:28;101306.88;;;3.03;62.43
43663;BME280;74813;56.104;40.358;2024-03-02T05:57:00;101308.53;;;3.04;62.40
43663;BME280;74813;56.104;40.358;2024-03-02T05:59:32;101308.59;;;3.10;63.45
43663;BME280;74813;56.104;40.358;2024-03-02T06:02:05;101316.94;;;3.09;62.51
43663;BME280;74813;56.104;40.358;2024-03-02T06:04:37;101320.53;;;2.88;62.65
43663;BME280;74813;56.104;40.358;2024-03-02T06:07:09;101319.56;;;3.17;62.72
43663;BME280;74813;56.104;40.358;2024-03-02T06:09:42;101326.56;;;2.62;63.78
43663;BME280;74813;56.104;40.358;2024-03-02T06:12:14;101330.59;;;2.87;63.29
43663;BME280;74813;56.104;40.358;2024-03-02T06:14:46;101324.16;;;2.73;63.46
43663;BME280;74813;56.104;40.358;2024-03-02T06:17:19;101336.94;;;2.94;63.58
43663;BME280;74813;56.104;40.358;2024-03-02T06:19:51;101329.81;;;2.93;63.25
43663;BME280;74813;56.104;40.358;2024-03-02T06:22:23;101333.28;;;3.09;62.46
43663;BME280;74813;56.104;40.358;2024-03-02T06:24:56;101336.97;;;3.01;63.03
43663;BME280;74813;56.104;40.358;2024-03-02T06:27:28;101329.78;;;3.43;62.11
43663;BME280;74813;56.104;40.358;2024-03-02T06:30:00;101333.69;;;3.62;60.97
43663;BME280;74813;56.104;40.358;2024-03-02T06:32:33;101330.09;;;3.55;61.21
43663;BME280;74813;56.104;40.358;2024-03-02T06:35:05;101331.78;;;3.28;61.76
43663;BME280;74813;56.104;40.358;2024-03-02T06:37:38;101327.00;;;3.64;60.47
43663;BME280;74813;56.104;40.358;2024-03-02T06:40:11;101317.78;;;3.65;60.65
43663;BME280;74813;56.104;40.358;2024-03-02T06:42:43;101322.28;;;4.21;59.23
43663;BME280;74813;56.104;40.358;2024-03-02T06:45:15;101325.09;;;4.55;57.92
43663;BME280;74813;56.104;40.358;2024-03-02T06:47:48;101317.16;;;4.80;57.08
43663;BME280;74813;56.104;40.358;2024-03-02T06:50:20;101321.63;;;5.01;56.29
43663;BME280;74813;56.104;40.358;2024-03-02T06:52:52;101325.31;;;4.60;57.61
43663;BME280;74813;56.104;40.358;2024-03-02T06:55:25;101321.56;;;4.61;57.52
43663;BME280;74813;56.104;40.358;2024-03-02T06:57:57;101325.81;;;4.90;56.62
43663;BME280;74813;56.104;40.358;2024-03-02T07:00:30;101315.22;;;4.47;57.30
43663;BME280;74813;56.104;40.358;2024-03-02T07:03:02;101314.56;;;4.45;57.90
43663;BME280;74813;56.104;40.358;2024-03-02T07:05:35;101314.31;;;4.26;57.80
43663;BME280;74813;56.104;40.358;2024-03-02T07:08:07;101312.44;;;3.85;59.33
43663;BME280;74813;56.104;40.358;2024-03-02T07:10:40;101321.81;;;4.11;58.81
43663;BME280;74813;56.104;40.358;2024-03-02T07:13:12;101307.72;;;4.69;56.98
43663;BME280;74813;56.104;40.358;2024-03-02T07:15:44;101311.50;;;4.74;57.25
43663;BME280;74813;56.104;40.358;2024-03-02T07:18:17;101314.69;;;4.98;56.37
43663;BME280;74813;56.104;40.358;2024-03-02T07:20:49;101313.00;;;5.04;55.94
43663;BME280;74813;56.104;40.358;2024-03-02T07:23:21;101307.94;;;5.34;55.13
43663;BME280;74813;56.104;40.358;2024-03-02T07:25:54;101303.28;;;5.74;53.63
43663;BME280;74813;56.104;40.358;2024-03-02T07:28:26;101303.53;;;5.26;55.16
43663;BME280;74813;56.104;40.358;2024-03-02T07:31:03;101305.19;;;5.60;53.70
43663;BME280;74813;56.104;40.358;2024-03-02T07:33:36;101298.00;;;5.86;53.59
43663;BME280;74813;56.104;40.358;2024-03-02T07:36:08;101296.72;;;6.40;51.73
43663;BME280;74813;56.104;40.358;2024-03-02T07:38:41;101312.88;;;7.12;50.74
43663;BME280;74813;56.104;40.358;2024-03-02T07:41:14;101302.03;;;6.99;50.58
43663;BME280;74813;56.104;40.358;2024-03-02T07:43:47;101292.34;;;6.71;50.67
43663;BME280;74813;56.104;40.358;2024-03-02T07:46:19;101306.75;;;6.15;52.26
43663;BME280;74813;56.104;40.358;2024-03-02T07:48:51;101297.53;;;5.96;52.46
43663;BME280;74813;56.104;40.358;2024-03-02T07:51:24;101297.53;;;6.02;52.18
43663;BME280;74813;56.104;40.358;2024-03-02T07:53:56;101300.41;;;6.21;52.49
43663;BME280;74813;56.104;40.358;2024-03-02T07:56:28;101304.53;;;6.75;51.32
43663;BME280;74813;56.104;40.358;2024-03-02T07:59:02;101307.88;;;6.77;49.58
43663;BME280;74813;56.104;40.358;2024-03-02T08:01:34;101289.94;;;7.75;48.13
43663;BME280;74813;56.104;40.358;2024-03-02T08:04:06;101305.91;;;7.16;49.34
43663;BME280;74813;56.104;40.358;2024-03-02T08:06:39;101298.53;;;7.60;47.79
43663;BME280;74813;56.104;40.358;2024-03-02T08:09:11;101291.84;;;7.93;47.46
43663;BME280;74813;56.104;40.358;2024-03-02T08:11:43;101295.34;;;7.45;47.96
43663;BME280;74813;56.104;40.358;2024-03-02T08:14:16;101296.44;;;7.12;49.80
43663;BME280;74813;56.104;40.358;2024-03-02T08:16:48;101307.47;;;6.35;51.00
43663;BME280;74813;56.104;40.358;2024-03-02T08:19:21;101302.41;;;5.94;52.41
43663;BME280;74813;56.104;40.358;2024-03-02T08:21:53;101295.66;;;6.48;51.51
43663;BME280;74813;56.104;40.358;2024-03-02T08:24:25;101303.50;;;5.66;53.17
43663;BME280;74813;56.104;40.358;2024-03-02T08:26:59;101306.44;;;5.71;53.39
43663;BME280;74813;56.104;40.358;2024-03-02T08:29:31;101313.22;;;5.35;54.37
43663;BME280;74813;56.104;40.358;2024-03-02T08:32:05;101309.03;;;4.93;56.03
43663;BME280;74813;56.104;40.358;2024-03-02T08:34:37;101307.72;;;4.69;57.26
43663;BME280;74813;56.104;40.358;2024-03-02T08:37:10;101306.59;;;4.37;58.38
43663;BME280;74813;56.104;40.358;2024-03-02T08:39:42;101312.50;;;4.40;58.14
43663;BME280;74813;56.104;40.358;2024-03-02T08:42:15;101312.38;;;4.14;58.44
43663;BME280;74813;56.104;40.358;2024-03-02T08:44:47;101311.47;;;4.48;58.41
43663;BME280;74813;56.104;40.358;2024-03-02T08:47:20;101311.84;;;4.45;58.07
43663;BME280;74813;56.104;40.358;2024-03-02T08:49:52;101309.69;;;4.27;58.65
43663;BME280;74813;56.104;40.358;2024-03-02T08:52:25;101320.84;;;4.25;59.19
43663;BME280;74813;56.104;40.358;2024-03-02T08:54:57;101299.09;;;3.97;59.21
43663;BME280;74813;56.104;40.358;2024-03-02T08:57:30;101309.28;;;4.30;59.21
43663;BME280;74813;56.104;40.358;2024-03-02T09:00:03;101320.13;;;4.10;59.53
43663;BME280;74813;56.104;40.358;2024-03-02T09:02:36;101316.63;;;4.29;59.11
43663;BME280;74813;56.104;40.358;2024-03-02T09:05:09;101310.63;;;4.54;58.71
43663;BME280;74813;56.104;40.358;2024-03-02T09:07:41;101310.69;;;5.01;56.80
43663;BME280;74813;56.104;40.358;2024-03-02T09:10:14;101302.63;;;5.79;54.72
43663;BME280;74813;56.104;40.358;2024-03-02T09:12:46;101311.03;;;5.71;55.24
43663;BME280;74813;56.104;40.358;2024-03-02T09:15:19;101306.81;;;6.01;54.27
43663;BME280;74813;56.104;40.358;2024-03-02T09:17:51;101315.19;;;6.13;53.67
43663;BME280;74813;56.104;40.358;2024-03-02T09:20:23;101303.84;;;5.90;53.89
43663;BME280;74813;56.104;40.358;2024-03-02T09:22:56;101315.56;;;5.12;56.10
43663;BME280;74813;56.104;40.358;2024-03-02T09:25:28;101308.19;;;5.32;55.60
43663;BME280;74813;56.104;40.358;2024-03-02T09:28:00;101314.44;;;5.46;55.28
43663;BME280;74813;56.104;40.358;2024-03-02T09:30:33;101306.22;;;6.70;52.77
43663;BME280;74813;56.104;40.358;2024-03-02T09:33:05;101299.16;;;6.17;53.38
43663;BME280;74813;56.104;40.358;2024-03-02T09:35:38;101313.03;;;6.22;52.75
43663;BME280;74813;56.104;40.358;2024-03-02T09:38:10;101311.47;;;5.68;55.15
43663;BME280;74813;56.104;40.358;2024-03-02T09:40:42;101316.56;;;6.29;52.75
43663;BME280;74813;56.104;40.358;2024-03-02T09:43:15;101310.69;;;6.25;52.57
43663;BME280;74813;56.104;40.358;2024-03-02T09:45:48;101319.84;;;5.99;53.22
43663;BME280;74813;56.104;40.358;2024-03-02T09:48:20;101309.97;;;5.98;52.84
43663;BME280;74813;56.104;40.358;2024-03-02T09:50:52;101312.31;;;6.78;51.33
43663;BME280;74813;56.104;40.358;2024-03-02T09:53:25;101316.44;;;6.56;52.10
43663;BME280;74813;56.104;40.358;2024-03-02T09:55:59;101313.91;;;6.16;52.46
43663;BME280;74813;56.104;40.358;2024-03-02T09:58:32;101320.78;;;5.27;55.08
43663;BME280;74813;56.104;40.358;2024-03-02T10:01:08;101319.50;;;4.96;56.21
43663;BME280;74813;56.104;40.358;2024-03-02T10:03:40;101326.88;;;5.15;56.04
43663;BME280;74813;56.104;40.358;2024-03-02T10:06:23;101322.84;;;4.78;57.26
43663;BME280;74813;56.104;40.358;2024-03-02T10:08:56;101319.09;;;4.86;57.07
43663;BME280;74813;56.104;40.358;2024-03-02T10:11:33;101322.22;;;4.76;57.79
43663;BME280;74813;56.104;40.358;2024-03-02T10:14:10;101327.81;;;4.48;58.65
43663;BME280;74813;56.104;40.358;2024-03-02T10:16:44;101322.09;;;4.29;59.71
43663;BME280;74813;56.104;40.358;2024-03-02T10:19:21;101334.81;;;3.74;61.47
43663;BME280;74813;56.104;40.358;2024-03-02T10:21:54;101330.41;;;3.73;61.48
43663;BME280;74813;56.104;40.358;2024-03-02T10:24:26;101326.72;;;3.87;61.95
43663;BME280;74813;56.104;40.358;2024-03-02T10:26:59;101326.47;;;4.24;60.84
43663;BME280;74813;56.104;40.358;2024-03-02T10:29:31;101325.59;;;4.17;60.89
43663;BME280;74813;56.104;40.358;2024-03-02T10:32:04;101327.19;;;3.98;61.34
43663;BME280;74813;56.104;40.358;2024-03-02T10:34:37;101330.91;;;3.83;61.44
43663;BME280;74813;56.104;40.358;2024-03-02T10:37:13;101327.16;;;3.91;61.32
43663;BME280;74813;56.104;40.358;2024-03-02T10:39:46;101336.00;;;4.00;61.41
43663;BME280;74813;56.104;40.358;2024-03-02T10:42:19;101322.56;;;3.92;61.27
43663;BME280;74813;56.104;40.358;2024-03-02T10:44:52;101325.00;;;3.80;62.35
43663;BME280;74813;56.104;40.358;2024-03-02T10:47:25;101323.75;;;3.48;63.03
43663;BME280;74813;56.104;40.358;2024-03-02T10:49:59;101332.47;;;3.36;63.89
43663;BME280;74813;56.104;40.358;2024-03-02T10:52:32;101321.38;;;3.38;64.02
43663;BME280;74813;56.104;40.358;2024-03-02T10:55:06;101331.97;;;3.26;64.41
43663;BME280;74813;56.104;40.358;2024-03-02T11:00:13;101348.84;;;3.15;64.69
43663;BME280;74813;56.104;40.358;2024-03-02T11:02:52;101340.13;;;3.26;64.50
43663;BME280;74813;56.104;40.358;2024-03-02T11:05:30;101342.38;;;2.94;64.85
43663;BME280;74813;56.104;40.358;2024-03-02T11:08:08;101343.88;;;2.75;65.81
43663;BME280;74813;56.104;40.358;2024-03-02T11:10:48;101349.56;;;3.02;65.27
43663;BME280;74813;56.104;40.358;2024-03-02T11:13:31;101348.16;;;3.34;64.54
43663;BME280;74813;56.104;40.358;2024-03-02T11:16:09;101347.38;;;3.40;63.50
43663;BME280;74813;56.104;40.358;2024-03-02T11:18:44;101343.22;;;3.44;63.13
43663;BME280;74813;56.104;40.358;2024-03-02T11:21:17;101338.69;;;3.30;64.05
43663;BME280;74813;56.104;40.358;2024-03-02T11:23:50;101345.88;;;3.38;64.03
43663;BME280;74813;56.104;40.358;2024-03-02T11:26:22;101356.28;;;3.28;64.24
43663;BME280;74813;56.104;40.358;2024-03-02T11:28:55;101345.97;;;3.23;64.08
43663;BME280;74813;56.104;40.358;2024-03-02T11:31:59;101348.34;;;3.05;65.12
43663;BME280;74813;56.104;40.358;2024-03-02T11:34:35;101354.34;;;3.21;64.31
43663;BME280;74813;56.104;40.358;2024-03-02T11:37:08;101364.25;;;3.08;64.84
43663;BME280;74813;56.104;40.358;2024-03-02T11:39:43;101352.16;;;3.10;65.01
43663;BME280;74813;56.104;40.358;2024-03-02T11:42:16;101347.03;;;3.00;65.08
43663;BME280;74813;56.104;40.358;2024-03-02T11:44:49;101351.34;;;3.16;64.97
43663;BME280;74813;56.104;40.358;2024-03-02T11:47:21;101349.09;;;2.98;64.98
43663;BME280;74813;56.104;40.358;2024-03-02T11:49:53;101346.97;;;2.94;65.66
43663;BME280;74813;56.104;40.358;2024-03-02T11:52:26;101353.13;;;3.03;65.22
43663;BME280;74813;56.104;40.358;2024-03-02T11:55:02;101354.34;;;3.00;64.95
43663;BME280;74813;56.104;40.358;2024-03-02T11:57:35;101351.63;;;3.21;64.59
43663;BME280;74813;56.104;40.358;2024-03-02T12:00:17;101354.63;;;3.33;64.35
43663;BME280;74813;56.104;40.358;2024-03-02T12:03:06;101350.66;;;3.36;63.98
43663;BME280;74813;56.104;40.358;2024-03-02T12:05:39;101351.91;;;3.33;64.10
43663;BME280;74813;56.104;40.358;2024-03-02T12:08:12;101353.28;;;3.44;63.80
43663;BME280;74813;56.104;40.358;2024-03-02T12:11:05;101358.84;;;3.36;63.74
43663;BME280;74813;56.104;40.358;2024-03-02T12:13:37;101350.50;;;3.16;64.63
43663;BME280;74813;56.104;40.358;2024-03-02T12:16:09;101359.22;;;2.83;65.49
43663;BME280;74813;56.104;40.358;2024-03-02T12:18:42;101364.50;;;2.91;64.97
43663;BME280;74813;56.104;40.358;2024-03-02T12:21:17;101367.56;;;3.03;65.26
43663;BME280;74813;56.104;40.358;2024-03-02T12:23:49;101370.22;;;3.18;65.42
43663;BME280;74813;56.104;40.358;2024-03-02T12:26:22;101373.66;;;2.62;66.71
43663;BME280;74813;56.104;40.358;2024-03-02T12:28:54;101374.88;;;2.81;66.36
43663;BME280;74813;56.104;40.358;2024-03-02T12:31:27;101379.66;;;2.79;67.02
43663;BME280;74813;56.104;40.358;2024-03-02T12:34:02;101374.53;;;2.48;67.06
43663;BME280;74813;56.104;40.358;2024-03-02T12:36:38;101376.63;;;2.67;66.95
43663;BME280;74813;56.104;40.358;2024-03-02T12:39:11;101382.13;;;2.38;67.51
43663;BME280;74813;56.104;40.358;2024-03-02T12:41:43;101385.50;;;2.25;67.61
43663;BME280;74813;56.104;40.358;2024-03-02T12:44:16;101386.81;;;2.29;67.62
43663;BME280;74813;56.104;40.358;2024-03-02T12:46:49;101371.19;;;2.16;67.56
43663;BME280;74813;56.104;40.358;2024-03-02T12:49:22;101380.66;;;2.20;67.13
43663;BME280;74813;56.104;40.358;2024-03-02T12:51:54;101387.00;;;2.27;67.79
43663;BME280;74813;56.104;40.358;2024-03-02T12:54:27;101383.06;;;2.15;67.68
43663;BME280;74813;56.104;40.358;2024-03-02T13:29:55;101378.28;;;2.32;65.34
43663;BME280;74813;56.104;40.358;2024-03-02T13:32:27;101373.44;;;2.64;64.15
43663;BME280;74813;56.104;40.358;2024-03-02T13:35:00;101375.44;;;2.55;65.41
43663;BME280;74813;56.104;40.358;2024-03-02T13:37:32;101376.59;;;2.31;63.78
43663;BME280;74813;56.104;40.358;2024-03-02T13:40:05;101380.31;;;2.81;63.11
43663;BME280;74813;56.104;40.358;2024-03-02T13:42:38;101379.75;;;2.49;63.50
43663;BME280;74813;56.104;40.358;2024-03-02T13:45:11;101381.84;;;2.69;63.03
43663;BME280;74813;56.104;40.358;2024-03-02T13:47:43;101373.31;;;2.72;63.16
43663;BME280;74813;56.104;40.358;2024-03-02T13:50:16;101370.59;;;2.72;62.85
43663;BME280;74813;56.104;40.358;2024-03-02T13:52:48;101374.09;;;2.66;62.51
43663;BME280;74813;56.104;40.358;2024-03-02T13:55:20;101380.63;;;2.71;62.23
43663;BME280;74813;56.104;40.358;2024-03-02T13:57:53;101383.03;;;2.81;61.78